sensor_id;sensor_type;location;lat;lon;timestamp;temperature;humidity
9049;DHT22;4559;47.252;9.592;2022-12-31T00:01:06;11.80;99.90
9049;DHT22;4559;47.252;9.592;2022-12-31T00:03:33;11.80;99.90
9049;DHT22;4559;47.252;9.592;2022-12-31T00:05:58;11.70;99.90
9049;DHT22;4559;47.252;9.592;2022-12-31T00:08:24;11.70;99.90
9049;DHT22;4559;47.252;9.592;2022-12-31T00:10:50;11.70;99.90
9049;DHT22;4559;47.252;9.592;2022-12-31T00:13:15;11.60;99.90
9049;DHT22;4559;47.252;9.592;2022-12-31T00:15:41;11.60;99.90
9049;DHT22;4559;47.252;9.592;2022-12-31T00:18:08;11.70;99.90
9049;DHT22;4559;47.252;9.592;2022-12-31T00:20:38;11.70;99.90
9049;DHT22;4559;47.252;9.592;2022-12-31T00:23:05;11.60;99.90
9049;DHT22;4559;47.252;9.592;2022-12-31T00:25:30;11.60;99.90
9049;DHT22;4559;47.252;9.592;2022-12-31T00:27:56;11.60;99.90
9049;DHT22;4559;47.252;9.592;2022-12-31T00:30:21;11.60;99.90
9049;DHT22;4559;47.252;9.592;2022-12-31T00:32:47;11.60;99.90
9049;DHT22;4559;47.252;9.592;2022-12-31T00:35:12;11.60;99.90
9049;DHT22;4559;47.252;9.592;2022-12-31T00:37:38;11.50;99.90
9049;DHT22;4559;47.252;9.592;2022-12-31T00:40:04;11.50;99.90
9049;DHT22;4559;47.252;9.592;2022-12-31T00:42:30;11.60;99.90
9049;DHT22;4559;47.252;9.592;2022-12-31T00:44:55;11.60;99.90
9049;DHT22;4559;47.252;9.592;2022-12-31T00:47:21;11.60;99.90
9049;DHT22;4559;47.252;9.592;2022-12-31T00:49:48;11.60;99.90
9049;DHT22;4559;47.252;9.592;2022-12-31T00:52:14;11.60;99.90
9049;DHT22;4559;47.252;9.592;2022-12-31T00:54:41;11.60;99.90
9049;DHT22;4559;47.252;9.592;2022-12-31T00:57:06;11.50;99.90
9049;DHT22;4559;47.252;9.592;2022-12-31T00:59:32;11.40;99.90
9049;DHT22;4559;47.252;9.592;2022-12-31T01:01:57;11.50;99.90
9049;DHT22;4559;47.252;9.592;2022-12-31T01:04:23;11.50;99.90
9049;DHT22;4559;47.252;9.592;2022-12-31T01:06:49;11.50;99.90
9049;DHT22;4559;47.252;9.592;2022-12-31T01:09:15;11.60;99.90
9049;DHT22;4559;47.252;9.592;2022-12-31T01:11:41;11.60;99.90
9049;DHT22;4559;47.252;9.592;2022-12-31T01:14:17;11.60;99.90
9049;DHT22;4559;47.252;9.592;2022-12-31T01:16:50;11.60;99.90
9049;DHT22;4559;47.252;9.592;2022-12-31T01:19:21;11.70;99.90
9049;DHT22;4559;47.252;9.592;2022-12-31T01:21:49;11.70;99.90
9049;DHT22;4559;47.252;9.592;2022-12-31T01:24:15;11.70;99.90
9049;DHT22;4559;47.252;9.592;2022-12-31T01:26:42;11.70;99.90
9049;DHT22;4559;47.252;9.592;2022-12-31T01:29:09;11.80;99.90
9049;DHT22;4559;47.252;9.592;2022-12-31T01:31:36;11.90;99.90
9049;DHT22;4559;47.252;9.592;2022-12-31T01:34:03;12.10;99.90
9049;DHT22;4559;47.252;9.592;2022-12-31T01:36:31;12.10;99.90
9049;DHT22;4559;47.252;9.592;2022-12-31T01:38:57;12.20;99.90
9049;DHT22;4559;47.252;9.592;2022-12-31T01:41:30;12.30;99.90
9049;DHT22;4559;47.252;9.592;2022-12-31T01:43:59;12.40;99.90
9049;DHT22;4559;47.252;9.592;2022-12-31T01:46:41;12.40;99.90
9049;DHT22;4559;47.252;9.592;2022-12-31T01:49:17;12.40;99.90
9049;DHT22;4559;47.252;9.592;2022-12-31T01:51:47;12.30;99.90
9049;DHT22;4559;47.252;9.592;2022-12-31T01:54:15;12.20;99.90
9049;DHT22;4559;47.252;9.592;2022-12-31T01:56:42;12.20;99.90
9049;DHT22;4559;47.252;9.592;2022-12-31T01:59:10;12.20;99.90
9049;DHT22;4559;47.252;9.592;2022-12-31T02:01:37;12.10;99.90
9049;DHT22;4559;47.252;9.592;2022-12-31T02:04:07;12.00;99.90
9049;DHT22;4559;47.252;9.592;2022-12-31T02:06:45;11.90;99.90
9049;DHT22;4559;47.252;9.592;2022-12-31T02:09:12;11.90;99.90
9049;DHT22;4559;47.252;9.592;2022-12-31T02:11:38;11.90;99.90
9049;DHT22;4559;47.252;9.592;2022-12-31T02:14:13;12.00;99.90
9049;DHT22;4559;47.252;9.592;2022-12-31T02:16:55;12.10;99.90
9049;DHT22;4559;47.252;9.592;2022-12-31T02:22:33;12.20;99.90
9049;DHT22;4559;47.252;9.592;2022-12-31T02:30:21;12.30;99.90
9049;DHT22;4559;47.252;9.592;2022-12-31T02:33:12;12.30;99.90
9049;DHT22;4559;47.252;9.592;2022-12-31T02:35:52;12.30;99.90
9049;DHT22;4559;47.252;9.592;2022-12-31T02:38:40;12.20;99.90
9049;DHT22;4559;47.252;9.592;2022-12-31T02:41:12;12.10;99.90
9049;DHT22;4559;47.252;9.592;2022-12-31T02:43:57;12.10;99.90
9049;DHT22;4559;47.252;9.592;2022-12-31T02:46:38;12.00;99.90
9049;DHT22;4559;47.252;9.592;2022-12-31T02:49:24;12.00;99.90
9049;DHT22;4559;47.252;9.592;2022-12-31T02:51:59;11.90;99.90
9049;DHT22;4559;47.252;9.592;2022-12-31T03:02:41;12.20;99.90
9049;DHT22;4559;47.252;9.592;2022-12-31T03:05:08;12.20;99.90
9049;DHT22;4559;47.252;9.592;2022-12-31T03:07:35;12.20;99.90
9049;DHT22;4559;47.252;9.592;2022-12-31T03:10:00;12.20;99.90
9049;DHT22;4559;47.252;9.592;2022-12-31T03:12:30;12.20;99.90
9049;DHT22;4559;47.252;9.592;2022-12-31T03:15:20;12.30;99.90
9049;DHT22;4559;47.252;9.592;2022-12-31T03:20:23;12.50;99.90
9049;DHT22;4559;47.252;9.592;2022-12-31T03:23:11;12.50;99.90
9049;DHT22;4559;47.252;9.592;2022-12-31T03:25:37;12.50;99.90
9049;DHT22;4559;47.252;9.592;2022-12-31T03:28:17;12.40;99.90
9049;DHT22;4559;47.252;9.592;2022-12-31T03:30:45;12.40;99.90
9049;DHT22;4559;47.252;9.592;2022-12-31T03:33:12;12.40;99.90
9049;DHT22;4559;47.252;9.592;2022-12-31T03:35:39;12.30;99.90
9049;DHT22;4559;47.252;9.592;2022-12-31T03:38:05;12.30;99.90
9049;DHT22;4559;47.252;9.592;2022-12-31T03:40:31;12.30;99.90
9049;DHT22;4559;47.252;9.592;2022-12-31T03:42:59;12.40;99.90
9049;DHT22;4559;47.252;9.592;2022-12-31T03:45:25;12.30;99.90
9049;DHT22;4559;47.252;9.592;2022-12-31T03:47:51;12.30;99.90
9049;DHT22;4559;47.252;9.592;2022-12-31T03:50:17;12.30;99.90
9049;DHT22;4559;47.252;9.592;2022-12-31T03:52:44;12.30;99.90
9049;DHT22;4559;47.252;9.592;2022-12-31T03:55:10;12.30;99.90
9049;DHT22;4559;47.252;9.592;2022-12-31T03:57:37;12.40;99.90
9049;DHT22;4559;47.252;9.592;2022-12-31T04:00:05;12.40;99.90
9049;DHT22;4559;47.252;9.592;2022-12-31T04:02:30;12.40;99.90
9049;DHT22;4559;47.252;9.592;2022-12-31T04:04:56;12.40;99.90
9049;DHT22;4559;47.252;9.592;2022-12-31T04:07:22;12.40;99.90
9049;DHT22;4559;47.252;9.592;2022-12-31T04:09:48;12.40;99.90
9049;DHT22;4559;47.252;9.592;2022-12-31T04:12:13;12.50;99.70
9049;DHT22;4559;47.252;9.592;2022-12-31T04:14:39;12.60;99.80
9049;DHT22;4559;47.252;9.592;2022-12-31T04:17:04;12.70;99.90
9049;DHT22;4559;47.252;9.592;2022-12-31T04:19:30;12.80;99.90
9049;DHT22;4559;47.252;9.592;2022-12-31T04:21:56;12.80;99.90
9049;DHT22;4559;47.252;9.592;2022-12-31T04:24:21;12.80;99.90
9049;DHT22;4559;47.252;9.592;2022-12-31T04:26:47;12.70;99.90
9049;DHT22;4559;47.252;9.592;2022-12-31T04:29:12;12.80;99.90
9049;DHT22;4559;47.252;9.592;2022-12-31T04:31:38;12.80;99.90
9049;DHT22;4559;47.252;9.592;2022-12-31T04:34:04;12.70;99.90
9049;DHT22;4559;47.252;9.592;2022-12-31T04:36:29;12.70;99.90
9049;DHT22;4559;47.252;9.592;2022-12-31T04:38:55;12.60;99.90
9049;DHT22;4559;47.252;9.592;2022-12-31T04:41:20;12.60;99.90
9049;DHT22;4559;47.252;9.592;2022-12-31T04:43:49;12.50;99.90
9049;DHT22;4559;47.252;9.592;2022-12-31T04:46:18;12.60;99.90
9049;DHT22;4559;47.252;9.592;2022-12-31T04:48:44;12.60;99.90
9049;DHT22;4559;47.252;9.592;2022-12-31T04:51:10;12.50;99.90
9049;DHT22;4559;47.252;9.592;2022-12-31T04:53:36;12.50;99.90
9049;DHT22;4559;47.252;9.592;2022-12-31T04:56:02;12.40;99.90
9049;DHT22;4559;47.252;9.592;2022-12-31T04:58:28;12.40;99.90
9049;DHT22;4559;47.252;9.592;2022-12-31T05:00:54;12.40;99.90
9049;DHT22;4559;47.252;9.592;2022-12-31T05:03:22;12.40;99.90
9049;DHT22;4559;47.252;9.592;2022-12-31T05:05:48;12.40;99.90
9049;DHT22;4559;47.252;9.592;2022-12-31T05:08:16;12.40;99.90
9049;DHT22;4559;47.252;9.592;2022-12-31T05:10:44;12.40;99.90
9049;DHT22;4559;47.252;9.592;2022-12-31T05:13:10;12.40;99.90
9049;DHT22;4559;47.252;9.592;2022-12-31T05:15:36;12.40;99.90
9049;DHT22;4559;47.252;9.592;2022-12-31T05:18:02;12.40;99.90
9049;DHT22;4559;47.252;9.592;2022-12-31T05:20:28;12.40;99.90
9049;DHT22;4559;47.252;9.592;2022-12-31T05:22:54;12.50;99.90
9049;DHT22;4559;47.252;9.592;2022-12-31T05:25:19;12.40;99.90
9049;DHT22;4559;47.252;9.592;2022-12-31T05:27:45;12.40;99.90
9049;DHT22;4559;47.252;9.592;2022-12-31T05:30:11;12.40;99.90
9049;DHT22;4559;47.252;9.592;2022-12-31T05:32:37;12.30;99.90
9049;DHT22;4559;47.252;9.592;2022-12-31T05:35:03;12.30;99.90
9049;DHT22;4559;47.252;9.592;2022-12-31T05:37:29;12.40;99.90
9049;DHT22;4559;47.252;9.592;2022-12-31T05:39:55;12.40;99.90
9049;DHT22;4559;47.252;9.592;2022-12-31T05:42:21;12.40;99.90
9049;DHT22;4559;47.252;9.592;2022-12-31T05:44:46;12.40;99.90
9049;DHT22;4559;47.252;9.592;2022-12-31T05:47:13;12.40;99.90
9049;DHT22;4559;47.252;9.592;2022-12-31T05:49:38;12.40;99.90
9049;DHT22;4559;47.252;9.592;2022-12-31T05:52:04;12.40;99.90
9049;DHT22;4559;47.252;9.592;2022-12-31T05:54:31;12.40;99.90
9049;DHT22;4559;47.252;9.592;2022-12-31T05:56:56;12.40;99.90
9049;DHT22;4559;47.252;9.592;2022-12-31T05:59:22;12.40;99.90
9049;DHT22;4559;47.252;9.592;2022-12-31T06:01:47;12.40;99.90
9049;DHT22;4559;47.252;9.592;2022-12-31T06:04:13;12.40;99.90
9049;DHT22;4559;47.252;9.592;2022-12-31T06:06:39;12.40;99.90
9049;DHT22;4559;47.252;9.592;2022-12-31T06:09:04;12.40;99.90
9049;DHT22;4559;47.252;9.592;2022-12-31T06:11:30;12.40;99.90
9049;DHT22;4559;47.252;9.592;2022-12-31T06:13:55;12.30;99.90
9049;DHT22;4559;47.252;9.592;2022-12-31T06:16:23;12.30;99.90
9049;DHT22;4559;47.252;9.592;2022-12-31T06:18:49;12.30;99.90
9049;DHT22;4559;47.252;9.592;2022-12-31T06:21:16;12.30;99.90
9049;DHT22;4559;47.252;9.592;2022-12-31T06:23:41;12.30;99.90
9049;DHT22;4559;47.252;9.592;2022-12-31T06:26:07;12.30;99.90
9049;DHT22;4559;47.252;9.592;2022-12-31T06:28:33;12.20;99.90
9049;DHT22;4559;47.252;9.592;2022-12-31T06:31:01;12.20;99.90
9049;DHT22;4559;47.252;9.592;2022-12-31T06:33:27;12.20;99.90
9049;DHT22;4559;47.252;9.592;2022-12-31T06:36:00;12.20;99.90
9049;DHT22;4559;47.252;9.592;2022-12-31T06:38:28;12.20;99.90
9049;DHT22;4559;47.252;9.592;2022-12-31T06:40:54;12.20;99.90
9049;DHT22;4559;47.252;9.592;2022-12-31T06:43:20;12.20;99.90
9049;DHT22;4559;47.252;9.592;2022-12-31T06:45:47;12.20;99.90
9049;DHT22;4559;47.252;9.592;2022-12-31T06:48:13;12.20;99.90
9049;DHT22;4559;47.252;9.592;2022-12-31T06:50:39;12.20;99.90
9049;DHT22;4559;47.252;9.592;2022-12-31T06:53:05;12.20;99.90
9049;DHT22;4559;47.252;9.592;2022-12-31T06:55:31;12.20;99.90
9049;DHT22;4559;47.252;9.592;2022-12-31T06:57:57;12.20;99.90
9049;DHT22;4559;47.252;9.592;2022-12-31T07:00:23;12.20;99.90
9049;DHT22;4559;47.252;9.592;2022-12-31T07:03:25;12.20;99.90
9049;DHT22;4559;47.252;9.592;2022-12-31T07:05:57;12.20;99.90
9049;DHT22;4559;47.252;9.592;2022-12-31T07:11:12;12.20;99.90
9049;DHT22;4559;47.252;9.592;2022-12-31T07:19:24;12.30;99.90
9049;DHT22;4559;47.252;9.592;2022-12-31T07:21:53;12.30;99.90
9049;DHT22;4559;47.252;9.592;2022-12-31T07:32:24;12.20;99.90
9049;DHT22;4559;47.252;9.592;2022-12-31T07:40:53;12.40;99.90
9049;DHT22;4559;47.252;9.592;2022-12-31T07:48:55;12.60;99.50
9049;DHT22;4559;47.252;9.592;2022-12-31T07:51:21;12.60;99.50
9049;DHT22;4559;47.252;9.592;2022-12-31T07:53:47;12.70;99.90
9049;DHT22;4559;47.252;9.592;2022-12-31T07:56:12;12.70;99.90
9049;DHT22;4559;47.252;9.592;2022-12-31T08:13:00;12.90;99.30
9049;DHT22;4559;47.252;9.592;2022-12-31T08:15:26;12.90;99.30
9049;DHT22;4559;47.252;9.592;2022-12-31T08:17:52;12.90;99.20
9049;DHT22;4559;47.252;9.592;2022-12-31T08:20:18;12.90;99.10
9049;DHT22;4559;47.252;9.592;2022-12-31T08:22:52;13.00;99.50
9049;DHT22;4559;47.252;9.592;2022-12-31T08:28:16;13.10;98.90
9049;DHT22;4559;47.252;9.592;2022-12-31T08:36:08;13.20;98.80
9049;DHT22;4559;47.252;9.592;2022-12-31T08:49:17;13.60;98.20
9049;DHT22;4559;47.252;9.592;2022-12-31T08:51:43;13.60;98.00
9049;DHT22;4559;47.252;9.592;2022-12-31T08:54:10;13.60;97.80
9049;DHT22;4559;47.252;9.592;2022-12-31T09:11:30;14.00;97.70
9049;DHT22;4559;47.252;9.592;2022-12-31T09:17:02;14.00;97.80
9049;DHT22;4559;47.252;9.592;2022-12-31T09:19:28;14.00;97.50
9049;DHT22;4559;47.252;9.592;2022-12-31T09:21:55;14.10;97.80
9049;DHT22;4559;47.252;9.592;2022-12-31T09:24:20;14.10;97.60
9049;DHT22;4559;47.252;9.592;2022-12-31T09:29:56;14.10;97.60
9049;DHT22;4559;47.252;9.592;2022-12-31T09:41:13;14.20;97.60
9049;DHT22;4559;47.252;9.592;2022-12-31T09:49:39;14.40;97.40
9049;DHT22;4559;47.252;9.592;2022-12-31T09:52:29;14.50;97.30
9049;DHT22;4559;47.252;9.592;2022-12-31T10:00:46;14.70;97.90
9049;DHT22;4559;47.252;9.592;2022-12-31T10:11:31;14.80;97.40
9049;DHT22;4559;47.252;9.592;2022-12-31T10:14:17;14.80;97.10
9049;DHT22;4559;47.252;9.592;2022-12-31T10:27:30;15.00;97.20
9049;DHT22;4559;47.252;9.592;2022-12-31T10:30:10;15.00;97.20
9049;DHT22;4559;47.252;9.592;2022-12-31T10:32:42;15.10;97.30
9049;DHT22;4559;47.252;9.592;2022-12-31T10:41:01;15.30;97.10
9049;DHT22;4559;47.252;9.592;2022-12-31T11:00:22;15.60;97.80
9049;DHT22;4559;47.252;9.592;2022-12-31T11:03:25;15.70;97.90
9049;DHT22;4559;47.252;9.592;2022-12-31T11:06:35;15.80;97.70
9049;DHT22;4559;47.252;9.592;2022-12-31T11:09:19;15.80;97.90
9049;DHT22;4559;47.252;9.592;2022-12-31T11:11:58;15.90;97.80
9049;DHT22;4559;47.252;9.592;2022-12-31T11:19:59;16.10;97.30
9049;DHT22;4559;47.252;9.592;2022-12-31T11:22:46;16.20;97.10
9049;DHT22;4559;47.252;9.592;2022-12-31T11:25:31;16.30;96.90
9049;DHT22;4559;47.252;9.592;2022-12-31T11:38:49;16.80;95.60
9049;DHT22;4559;47.252;9.592;2022-12-31T11:41:30;16.90;95.60
9049;DHT22;4559;47.252;9.592;2022-12-31T11:44:19;17.00;95.50
9049;DHT22;4559;47.252;9.592;2022-12-31T11:55:01;17.40;95.30
9049;DHT22;4559;47.252;9.592;2022-12-31T11:59:59;17.30;94.50
9049;DHT22;4559;47.252;9.592;2022-12-31T12:02:28;17.50;94.70
9049;DHT22;4559;47.252;9.592;2022-12-31T12:04:58;17.60;94.60
9049;DHT22;4559;47.252;9.592;2022-12-31T12:07:25;17.60;94.40
9049;DHT22;4559;47.252;9.592;2022-12-31T12:09:53;17.60;93.30
9049;DHT22;4559;47.252;9.592;2022-12-31T12:12:20;17.70;94.20
9049;DHT22;4559;47.252;9.592;2022-12-31T12:14:53;17.70;94.70
9049;DHT22;4559;47.252;9.592;2022-12-31T12:17:29;17.70;94.40
9049;DHT22;4559;47.252;9.592;2022-12-31T12:20:02;17.80;94.40
9049;DHT22;4559;47.252;9.592;2022-12-31T12:22:30;17.80;94.10
9049;DHT22;4559;47.252;9.592;2022-12-31T12:24:56;17.90;94.00
9049;DHT22;4559;47.252;9.592;2022-12-31T12:27:26;18.00;93.70
9049;DHT22;4559;47.252;9.592;2022-12-31T12:29:52;18.10;93.50
9049;DHT22;4559;47.252;9.592;2022-12-31T12:32:23;18.10;93.10
9049;DHT22;4559;47.252;9.592;2022-12-31T12:34:50;18.10;92.80
9049;DHT22;4559;47.252;9.592;2022-12-31T12:37:25;18.20;92.80
9049;DHT22;4559;47.252;9.592;2022-12-31T12:40:05;18.20;93.00
9049;DHT22;4559;47.252;9.592;2022-12-31T12:42:34;18.20;93.50
9049;DHT22;4559;47.252;9.592;2022-12-31T12:45:22;18.30;93.80
9049;DHT22;4559;47.252;9.592;2022-12-31T12:47:53;18.30;93.10
9049;DHT22;4559;47.252;9.592;2022-12-31T12:50:22;18.30;92.90
9049;DHT22;4559;47.252;9.592;2022-12-31T12:53:44;18.30;92.60
9049;DHT22;4559;47.252;9.592;2022-12-31T12:56:26;18.40;92.40
9049;DHT22;4559;47.252;9.592;2022-12-31T12:59:24;18.40;92.80
9049;DHT22;4559;47.252;9.592;2022-12-31T13:02:39;18.40;92.70
9049;DHT22;4559;47.252;9.592;2022-12-31T13:08:20;18.40;92.30
9049;DHT22;4559;47.252;9.592;2022-12-31T13:24:21;18.30;93.40
9049;DHT22;4559;47.252;9.592;2022-12-31T13:29:27;18.30;93.20
9049;DHT22;4559;47.252;9.592;2022-12-31T13:31:59;18.30;93.20
9049;DHT22;4559;47.252;9.592;2022-12-31T13:34:32;18.20;93.30
9049;DHT22;4559;47.252;9.592;2022-12-31T13:37:04;18.10;93.50
9049;DHT22;4559;47.252;9.592;2022-12-31T13:39:35;18.10;93.70
9049;DHT22;4559;47.252;9.592;2022-12-31T13:47:22;17.90;94.00
9049;DHT22;4559;47.252;9.592;2022-12-31T13:49:56;17.80;93.90
9049;DHT22;4559;47.252;9.592;2022-12-31T13:55:12;17.60;94.40
9049;DHT22;4559;47.252;9.592;2022-12-31T13:57:47;17.60;94.60
9049;DHT22;4559;47.252;9.592;2022-12-31T14:00:26;17.40;94.70
9049;DHT22;4559;47.252;9.592;2022-12-31T14:03:00;17.40;95.10
9049;DHT22;4559;47.252;9.592;2022-12-31T14:05:47;17.30;95.40
9049;DHT22;4559;47.252;9.592;2022-12-31T14:08:16;17.20;95.70
9049;DHT22;4559;47.252;9.592;2022-12-31T14:10:55;17.20;95.80
9049;DHT22;4559;47.252;9.592;2022-12-31T14:22:21;16.80;95.90
9049;DHT22;4559;47.252;9.592;2022-12-31T14:24:51;16.80;96.30
9049;DHT22;4559;47.252;9.592;2022-12-31T14:27:29;16.70;96.50
9049;DHT22;4559;47.252;9.592;2022-12-31T14:30:04;16.70;96.70
9049;DHT22;4559;47.252;9.592;2022-12-31T14:37:56;16.40;97.10
9049;DHT22;4559;47.252;9.592;2022-12-31T14:43:27;16.30;97.40
9049;DHT22;4559;47.252;9.592;2022-12-31T14:46:23;16.20;97.60
9049;DHT22;4559;47.252;9.592;2022-12-31T14:51:53;16.00;98.20
9049;DHT22;4559;47.252;9.592;2022-12-31T14:54:32;15.90;98.40
9049;DHT22;4559;47.252;9.592;2022-12-31T14:57:09;15.80;98.60
9049;DHT22;4559;47.252;9.592;2022-12-31T14:59:35;15.70;99.20
9049;DHT22;4559;47.252;9.592;2022-12-31T15:02:01;15.60;99.20
9049;DHT22;4559;47.252;9.592;2022-12-31T15:04:42;15.50;99.30
9049;DHT22;4559;47.252;9.592;2022-12-31T15:07:36;15.40;99.40
9049;DHT22;4559;47.252;9.592;2022-12-31T15:10:21;15.30;99.60
9049;DHT22;4559;47.252;9.592;2022-12-31T15:18:26;15.00;99.90
9049;DHT22;4559;47.252;9.592;2022-12-31T15:23:39;14.80;99.90
9049;DHT22;4559;47.252;9.592;2022-12-31T15:26:20;14.70;99.90
9049;DHT22;4559;47.252;9.592;2022-12-31T15:28:56;14.60;99.90
9049;DHT22;4559;47.252;9.592;2022-12-31T15:31:22;14.50;99.90
9049;DHT22;4559;47.252;9.592;2022-12-31T15:34:18;14.50;99.90
9049;DHT22;4559;47.252;9.592;2022-12-31T15:36:54;14.40;99.90
9049;DHT22;4559;47.252;9.592;2022-12-31T15:39:35;14.30;99.90
9049;DHT22;4559;47.252;9.592;2022-12-31T15:42:01;14.30;99.90
9049;DHT22;4559;47.252;9.592;2022-12-31T15:47:27;14.10;99.90
9049;DHT22;4559;47.252;9.592;2022-12-31T15:49:54;14.10;99.90
9049;DHT22;4559;47.252;9.592;2022-12-31T15:52:25;14.00;99.90
9049;DHT22;4559;47.252;9.592;2022-12-31T15:54:55;13.90;99.90
9049;DHT22;4559;47.252;9.592;2022-12-31T15:57:32;13.80;99.90
9049;DHT22;4559;47.252;9.592;2022-12-31T16:00:08;13.70;99.90
9049;DHT22;4559;47.252;9.592;2022-12-31T16:02:40;13.70;99.90
9049;DHT22;4559;47.252;9.592;2022-12-31T16:05:23;13.60;99.90
9049;DHT22;4559;47.252;9.592;2022-12-31T16:07:54;13.50;99.90
9049;DHT22;4559;47.252;9.592;2022-12-31T16:10:29;13.50;99.90
9049;DHT22;4559;47.252;9.592;2022-12-31T16:12:56;13.40;99.90
9049;DHT22;4559;47.252;9.592;2022-12-31T16:15:24;13.40;99.90
9049;DHT22;4559;47.252;9.592;2022-12-31T16:18:02;13.30;99.90
9049;DHT22;4559;47.252;9.592;2022-12-31T16:20:30;13.30;99.90
9049;DHT22;4559;47.252;9.592;2022-12-31T16:22:58;13.30;99.90
9049;DHT22;4559;47.252;9.592;2022-12-31T16:25:25;13.20;99.90
9049;DHT22;4559;47.252;9.592;2022-12-31T16:27:52;13.20;99.90
9049;DHT22;4559;47.252;9.592;2022-12-31T16:30:22;13.10;99.90
9049;DHT22;4559;47.252;9.592;2022-12-31T16:32:50;13.10;99.90
9049;DHT22;4559;47.252;9.592;2022-12-31T16:35:20;13.10;99.90
9049;DHT22;4559;47.252;9.592;2022-12-31T16:37:46;13.00;99.90
9049;DHT22;4559;47.252;9.592;2022-12-31T16:40:20;12.90;99.90
9049;DHT22;4559;47.252;9.592;2022-12-31T16:42:46;12.80;99.90
9049;DHT22;4559;47.252;9.592;2022-12-31T16:45:34;12.80;99.90
9049;DHT22;4559;47.252;9.592;2022-12-31T16:48:06;12.80;99.90
9049;DHT22;4559;47.252;9.592;2022-12-31T16:50:32;12.80;99.90
9049;DHT22;4559;47.252;9.592;2022-12-31T16:53:03;12.80;99.90
9049;DHT22;4559;47.252;9.592;2022-12-31T16:55:30;12.70;99.90
9049;DHT22;4559;47.252;9.592;2022-12-31T16:58:23;12.70;99.90
9049;DHT22;4559;47.252;9.592;2022-12-31T17:00:50;12.70;99.90
9049;DHT22;4559;47.252;9.592;2022-12-31T17:03:19;12.80;99.90
9049;DHT22;4559;47.252;9.592;2022-12-31T17:08:37;12.70;99.90
9049;DHT22;4559;47.252;9.592;2022-12-31T17:11:03;12.70;99.90
9049;DHT22;4559;47.252;9.592;2022-12-31T17:13:31;12.70;99.90
9049;DHT22;4559;47.252;9.592;2022-12-31T17:15:59;12.70;99.90
9049;DHT22;4559;47.252;9.592;2022-12-31T17:18:29;12.60;99.90
9049;DHT22;4559;47.252;9.592;2022-12-31T17:21:08;12.70;99.90
9049;DHT22;4559;47.252;9.592;2022-12-31T17:23:35;12.60;99.90
9049;DHT22;4559;47.252;9.592;2022-12-31T17:26:22;12.50;99.90
9049;DHT22;4559;47.252;9.592;2022-12-31T17:28:50;12.50;99.90
9049;DHT22;4559;47.252;9.592;2022-12-31T17:31:40;12.50;99.90
9049;DHT22;4559;47.252;9.592;2022-12-31T17:34:22;12.50;99.90
9049;DHT22;4559;47.252;9.592;2022-12-31T17:39:49;12.50;99.90
9049;DHT22;4559;47.252;9.592;2022-12-31T17:42:36;12.50;99.90
9049;DHT22;4559;47.252;9.592;2022-12-31T17:45:06;12.40;99.90
9049;DHT22;4559;47.252;9.592;2022-12-31T17:47:38;12.50;99.90
9049;DHT22;4559;47.252;9.592;2022-12-31T17:50:16;12.50;99.90
9049;DHT22;4559;47.252;9.592;2022-12-31T17:52:43;12.50;99.90
9049;DHT22;4559;47.252;9.592;2022-12-31T17:55:08;12.40;99.90
9049;DHT22;4559;47.252;9.592;2022-12-31T17:57:34;12.40;99.90
9049;DHT22;4559;47.252;9.592;2022-12-31T18:00:04;12.40;99.90
9049;DHT22;4559;47.252;9.592;2022-12-31T18:02:30;12.40;99.90
9049;DHT22;4559;47.252;9.592;2022-12-31T18:04:56;12.40;99.90
9049;DHT22;4559;47.252;9.592;2022-12-31T18:07:21;12.40;99.90
9049;DHT22;4559;47.252;9.592;2022-12-31T18:09:47;12.40;99.90
9049;DHT22;4559;47.252;9.592;2022-12-31T18:12:13;12.40;99.90
9049;DHT22;4559;47.252;9.592;2022-12-31T18:14:41;12.30;99.90
9049;DHT22;4559;47.252;9.592;2022-12-31T18:17:14;12.40;99.90
9049;DHT22;4559;47.252;9.592;2022-12-31T18:19:40;12.40;99.90
9049;DHT22;4559;47.252;9.592;2022-12-31T18:22:12;12.40;99.90
9049;DHT22;4559;47.252;9.592;2022-12-31T18:24:38;12.30;99.90
9049;DHT22;4559;47.252;9.592;2022-12-31T18:27:12;12.40;99.90
9049;DHT22;4559;47.252;9.592;2022-12-31T18:29:38;12.30;99.90
9049;DHT22;4559;47.252;9.592;2022-12-31T18:32:04;12.30;99.90
9049;DHT22;4559;47.252;9.592;2022-12-31T18:34:29;12.30;99.90
9049;DHT22;4559;47.252;9.592;2022-12-31T18:36:55;12.30;99.90
9049;DHT22;4559;47.252;9.592;2022-12-31T18:39:21;12.30;99.90
9049;DHT22;4559;47.252;9.592;2022-12-31T18:41:47;12.30;99.90
9049;DHT22;4559;47.252;9.592;2022-12-31T18:44:14;12.30;99.90
9049;DHT22;4559;47.252;9.592;2022-12-31T18:46:41;12.30;99.90
9049;DHT22;4559;47.252;9.592;2022-12-31T18:49:07;12.30;99.90
9049;DHT22;4559;47.252;9.592;2022-12-31T18:51:34;12.20;99.90
9049;DHT22;4559;47.252;9.592;2022-12-31T18:54:00;12.20;99.90
9049;DHT22;4559;47.252;9.592;2022-12-31T18:56:26;12.20;99.90
9049;DHT22;4559;47.252;9.592;2022-12-31T18:58:53;12.20;99.90
9049;DHT22;4559;47.252;9.592;2022-12-31T19:01:28;12.20;99.90
9049;DHT22;4559;47.252;9.592;2022-12-31T19:04:03;12.20;99.90
9049;DHT22;4559;47.252;9.592;2022-12-31T19:06:29;12.20;99.90
9049;DHT22;4559;47.252;9.592;2022-12-31T19:08:55;12.20;99.90
9049;DHT22;4559;47.252;9.592;2022-12-31T19:11:21;12.10;99.90
9049;DHT22;4559;47.252;9.592;2022-12-31T19:13:47;12.10;99.90
9049;DHT22;4559;47.252;9.592;2022-12-31T19:16:14;12.10;99.90
9049;DHT22;4559;47.252;9.592;2022-12-31T19:18:40;12.10;99.90
9049;DHT22;4559;47.252;9.592;2022-12-31T19:21:18;12.00;99.90
9049;DHT22;4559;47.252;9.592;2022-12-31T19:23:45;12.00;99.90
9049;DHT22;4559;47.252;9.592;2022-12-31T19:26:16;12.00;99.90
9049;DHT22;4559;47.252;9.592;2022-12-31T19:28:43;12.00;99.90
9049;DHT22;4559;47.252;9.592;2022-12-31T19:31:09;12.00;99.90
9049;DHT22;4559;47.252;9.592;2022-12-31T19:33:35;11.90;99.90
9049;DHT22;4559;47.252;9.592;2022-12-31T19:36:00;11.90;99.90
9049;DHT22;4559;47.252;9.592;2022-12-31T19:38:26;11.90;99.90
9049;DHT22;4559;47.252;9.592;2022-12-31T19:40:53;11.80;99.90
9049;DHT22;4559;47.252;9.592;2022-12-31T19:43:21;11.90;99.90
9049;DHT22;4559;47.252;9.592;2022-12-31T19:45:48;11.80;99.90
9049;DHT22;4559;47.252;9.592;2022-12-31T19:48:19;11.80;99.90
9049;DHT22;4559;47.252;9.592;2022-12-31T19:50:47;11.70;99.90
9049;DHT22;4559;47.252;9.592;2022-12-31T19:53:16;11.70;99.90
9049;DHT22;4559;47.252;9.592;2022-12-31T19:55:42;11.70;99.90
9049;DHT22;4559;47.252;9.592;2022-12-31T19:58:15;11.60;99.90
9049;DHT22;4559;47.252;9.592;2022-12-31T20:00:42;11.70;99.90
9049;DHT22;4559;47.252;9.592;2022-12-31T20:03:09;11.60;99.90
9049;DHT22;4559;47.252;9.592;2022-12-31T20:05:38;11.60;99.90
9049;DHT22;4559;47.252;9.592;2022-12-31T20:08:04;11.50;99.90
9049;DHT22;4559;47.252;9.592;2022-12-31T20:10:30;11.50;99.90
9049;DHT22;4559;47.252;9.592;2022-12-31T20:12:55;11.60;99.90
9049;DHT22;4559;47.252;9.592;2022-12-31T20:15:21;11.60;99.90
9049;DHT22;4559;47.252;9.592;2022-12-31T20:17:46;11.60;99.90
9049;DHT22;4559;47.252;9.592;2022-12-31T20:20:12;11.60;99.90
9049;DHT22;4559;47.252;9.592;2022-12-31T20:22:38;11.50;99.90
9049;DHT22;4559;47.252;9.592;2022-12-31T20:25:04;11.50;99.90
9049;DHT22;4559;47.252;9.592;2022-12-31T20:27:29;11.50;99.90
9049;DHT22;4559;47.252;9.592;2022-12-31T20:29:55;11.60;99.90
9049;DHT22;4559;47.252;9.592;2022-12-31T20:32:21;11.60;99.90
9049;DHT22;4559;47.252;9.592;2022-12-31T20:34:46;11.60;99.90
9049;DHT22;4559;47.252;9.592;2022-12-31T20:37:12;11.60;99.90